createdAt,value
2019-02-21T00:01:01.148Z,12.00
2019-02-21T00:03:30.418Z,12.57
2019-02-21T00:05:59.866Z,12.00
2019-02-21T00:08:29.096Z,11.60
2019-02-21T00:10:59.141Z,11.70
2019-02-21T00:13:29.059Z,11.47
2019-02-21T00:15:59.203Z,11.53
2019-02-21T00:18:29.275Z,12.10
2019-02-21T00:20:59.201Z,12.40
2019-02-21T00:23:28.479Z,12.23
2019-02-21T00:25:58.625Z,11.83
2019-02-21T00:28:27.931Z,12.60
2019-02-21T00:30:57.241Z,11.77
2019-02-21T00:33:28.339Z,13.50
2019-02-21T00:35:58.414Z,12.20
2019-02-21T00:38:28.526Z,12.70
2019-02-21T00:40:57.822Z,12.97
2019-02-21T00:43:27.308Z,12.97
2019-02-21T00:45:56.585Z,13.87
2019-02-21T00:48:25.861Z,13.00
2019-02-21T00:50:55.138Z,13.43
2019-02-21T00:53:25.450Z,12.73
2019-02-21T00:55:54.956Z,13.73
2019-02-21T00:58:24.211Z,13.67
2019-02-21T01:00:53.440Z,13.83
2019-02-21T01:03:22.628Z,13.87
2019-02-21T01:05:51.805Z,14.50
2019-02-21T01:08:21.095Z,13.70
2019-02-21T01:10:50.294Z,15.00
2019-02-21T01:13:19.464Z,14.50
2019-02-21T01:15:48.703Z,14.10
2019-02-21T01:18:17.935Z,14.60
2019-02-21T01:20:47.209Z,13.70
2019-02-21T01:23:16.436Z,14.10
2019-02-21T01:25:45.767Z,13.90
2019-02-21T01:28:15.035Z,14.53
2019-02-21T01:30:44.373Z,14.53
2019-02-21T01:33:16.479Z,15.43
2019-02-21T01:35:45.750Z,14.87
2019-02-21T01:38:15.140Z,14.20
2019-02-21T01:40:44.447Z,14.27
2019-02-21T01:43:13.808Z,14.47
2019-02-21T01:45:43.133Z,14.40
2019-02-21T01:48:12.407Z,13.87
2019-02-21T01:50:41.620Z,14.33
2019-02-21T01:53:10.859Z,14.60
2019-02-21T01:55:40.336Z,14.23
2019-02-21T01:58:10.112Z,14.70
2019-02-21T02:00:39.550Z,13.60
2019-02-21T02:03:08.830Z,15.10
2019-02-21T02:05:38.012Z,15.77
2019-02-21T02:08:07.272Z,14.07
2019-02-21T02:10:36.508Z,14.07
2019-02-21T02:13:05.824Z,15.80
2019-02-21T02:15:35.047Z,14.30
2019-02-21T02:18:04.257Z,16.17
2019-02-21T02:20:33.514Z,15.37
2019-02-21T02:23:02.948Z,15.83
2019-02-21T02:25:32.416Z,15.97
2019-02-21T02:28:01.682Z,15.97
2019-02-21T02:30:30.916Z,15.67
2019-02-21T02:33:00.090Z,15.97
2019-02-21T02:35:29.296Z,15.77
2019-02-21T02:37:58.582Z,14.63
2019-02-21T02:40:27.757Z,15.40
2019-02-21T02:42:57.040Z,17.10
2019-02-21T02:45:26.432Z,16.60
2019-02-21T02:47:55.648Z,17.30
2019-02-21T02:50:24.934Z,17.10
2019-02-21T02:52:54.155Z,17.30
2019-02-21T02:55:23.442Z,17.00
2019-02-21T02:57:52.709Z,15.67
2019-02-21T03:00:22.002Z,16.90
2019-02-21T03:02:51.439Z,17.23
2019-02-21T03:05:20.633Z,18.33
2019-02-21T03:07:49.901Z,18.10
2019-02-21T03:10:19.121Z,18.37
2019-02-21T03:12:48.391Z,17.80
2019-02-21T03:15:17.710Z,19.67
2019-02-21T03:17:46.937Z,18.53
2019-02-21T03:20:16.477Z,18.50
2019-02-21T03:22:45.799Z,18.73
2019-02-21T03:25:15.061Z,18.70
2019-02-21T03:27:44.264Z,19.53
2019-02-21T03:30:13.563Z,19.30
2019-02-21T03:32:42.923Z,18.37
2019-02-21T03:35:14.194Z,20.13
2019-02-21T03:37:43.496Z,19.83
2019-02-21T03:40:12.858Z,19.53
2019-02-21T03:42:42.063Z,20.90
2019-02-21T03:45:12.089Z,19.80
2019-02-21T03:47:41.287Z,19.90
2019-02-21T03:50:10.674Z,21.03
2019-02-21T03:52:39.890Z,20.33
2019-02-21T03:55:09.200Z,21.23
2019-02-21T03:57:38.456Z,21.20
2019-02-21T04:00:08.108Z,21.03
2019-02-21T04:02:38.008Z,21.43
2019-02-21T04:05:07.328Z,21.07
2019-02-21T04:07:36.520Z,22.03
2019-02-21T04:10:06.209Z,24.33
2019-02-21T04:12:35.420Z,22.90
2019-02-21T04:15:05.479Z,21.43
2019-02-21T04:17:34.833Z,23.73
2019-02-21T04:20:04.163Z,22.53
2019-02-21T04:22:33.384Z,23.73
2019-02-21T04:25:02.658Z,23.80
2019-02-21T04:27:31.857Z,22.67
2019-02-21T04:30:01.105Z,23.30
2019-02-21T04:32:30.568Z,24.20
2019-02-21T04:34:59.800Z,23.80
2019-02-21T04:37:29.027Z,25.50
2019-02-21T04:39:58.242Z,24.97
2019-02-21T04:42:27.527Z,25.73
2019-02-21T04:44:56.847Z,25.03
2019-02-21T04:47:26.106Z,26.97
2019-02-21T04:49:55.384Z,26.30
2019-02-21T04:52:24.681Z,25.57
2019-02-21T04:54:53.886Z,26.63
2019-02-21T04:57:23.045Z,25.77
2019-02-21T04:59:52.368Z,26.10
2019-02-21T05:02:29.256Z,25.20
2019-02-21T05:04:52.597Z,26.67
2019-02-21T05:07:40.916Z,25.53
2019-02-21T05:10:10.149Z,26.53
2019-02-21T05:12:39.430Z,27.57
2019-02-21T05:15:08.646Z,28.30
2019-02-21T05:17:37.859Z,27.90
2019-02-21T05:20:07.190Z,28.47
2019-02-21T05:22:36.486Z,27.57
2019-02-21T05:25:06.150Z,25.90
2019-02-21T05:27:38.386Z,27.63
2019-02-21T05:30:10.605Z,26.80
2019-02-21T05:33:17.058Z,28.30
2019-02-21T05:35:56.418Z,27.93
2019-02-21T05:38:43.916Z,27.40
2019-02-21T05:41:30.946Z,27.87
2019-02-21T05:44:22.259Z,27.90
2019-02-21T05:46:57.244Z,29.53
2019-02-21T05:49:32.999Z,30.03
2019-02-21T05:52:07.583Z,29.20
2019-02-21T05:55:01.853Z,30.30
2019-02-21T05:57:56.153Z,28.77
2019-02-21T06:00:43.090Z,27.67
2019-02-21T06:03:31.489Z,29.40
2019-02-21T06:06:18.449Z,31.13
2019-02-21T06:09:15.984Z,31.33
2019-02-21T06:12:07.060Z,32.20
2019-02-21T06:14:58.693Z,29.77
2019-02-21T06:17:41.508Z,28.87
2019-02-21T06:20:33.809Z,29.20
2019-02-21T06:23:13.048Z,27.07
2019-02-21T06:25:53.067Z,28.27
2019-02-21T06:28:28.503Z,28.67
2019-02-21T06:31:01.737Z,29.60
2019-02-21T06:33:31.012Z,27.87
2019-02-21T06:36:00.219Z,30.70
2019-02-21T06:38:29.466Z,30.80
2019-02-21T06:40:58.825Z,31.00
2019-02-21T06:43:28.008Z,29.30
2019-02-21T06:45:58.085Z,28.80
2019-02-21T06:48:27.699Z,29.47
2019-02-21T06:50:56.952Z,30.43
2019-02-21T06:53:26.262Z,29.70
2019-02-21T06:55:55.599Z,31.40
2019-02-21T06:58:24.790Z,32.40
2019-02-21T07:00:54.101Z,31.93
2019-02-21T07:03:23.408Z,31.00
2019-02-21T07:05:52.907Z,32.33
2019-02-21T07:08:22.128Z,33.00
2019-02-21T07:10:51.333Z,32.20
2019-02-21T07:13:26.711Z,33.60
2019-02-21T07:15:51.468Z,31.23
2019-02-21T07:18:20.750Z,31.87
2019-02-21T07:20:49.989Z,32.90
2019-02-21T07:23:19.697Z,33.47
2019-02-21T07:25:51.819Z,33.13
2019-02-21T07:28:21.007Z,34.57
2019-02-21T07:30:51.268Z,33.33
2019-02-21T07:33:28.299Z,31.97
2019-02-21T07:35:51.781Z,33.87
2019-02-21T07:38:21.051Z,35.40
2019-02-21T07:40:50.344Z,33.53
2019-02-21T07:43:20.565Z,34.57
2019-02-21T07:45:50.191Z,33.00
2019-02-21T07:48:19.441Z,34.93
2019-02-21T07:50:48.646Z,32.37
2019-02-21T07:53:17.880Z,32.47
2019-02-21T07:55:47.063Z,32.70
2019-02-21T07:58:16.252Z,32.70
2019-02-21T08:00:45.479Z,33.10
2019-02-21T08:03:14.774Z,32.63
2019-02-21T08:05:44.068Z,33.17
2019-02-21T08:08:13.531Z,34.17
2019-02-21T08:10:42.723Z,34.67
2019-02-21T08:13:12.110Z,31.70
2019-02-21T08:15:41.338Z,32.80
2019-02-21T08:18:10.556Z,34.03
2019-02-21T08:20:41.068Z,34.33
2019-02-21T08:23:11.442Z,34.50
2019-02-21T08:25:40.740Z,33.07
2019-02-21T08:28:10.031Z,31.73
2019-02-21T08:30:39.436Z,31.87
2019-02-21T08:33:16.512Z,33.73
2019-02-21T08:36:04.875Z,32.63
2019-02-21T08:38:34.278Z,33.43
2019-02-21T08:41:03.518Z,33.17
2019-02-21T08:43:32.923Z,32.23
2019-02-21T08:46:02.206Z,31.83
2019-02-21T08:48:31.415Z,34.13
2019-02-21T08:51:00.720Z,33.07
2019-02-21T08:53:29.929Z,33.20
2019-02-21T08:55:59.479Z,31.27
2019-02-21T08:58:28.748Z,32.83
2019-02-21T09:00:57.943Z,31.13
2019-02-21T09:03:27.139Z,32.67
2019-02-21T09:05:56.437Z,32.60
2019-02-21T09:08:32.985Z,32.77
2019-02-21T09:10:56.647Z,32.03
2019-02-21T09:13:25.855Z,31.27
2019-02-21T09:15:55.903Z,31.23
2019-02-21T09:18:25.423Z,30.93
2019-02-21T09:20:54.643Z,30.03
2019-02-21T09:23:23.858Z,30.87
2019-02-21T09:25:53.118Z,28.77
2019-02-21T09:28:22.345Z,29.57
2019-02-21T09:30:51.631Z,29.30
2019-02-21T09:33:21.490Z,30.40
2019-02-21T09:35:51.071Z,30.30
2019-02-21T09:38:20.646Z,29.27
2019-02-21T09:40:49.953Z,30.07
2019-02-21T09:43:19.306Z,28.97
2019-02-21T09:45:48.535Z,29.27
2019-02-21T09:48:17.795Z,28.93
2019-02-21T09:50:47.065Z,28.70
2019-02-21T09:53:16.386Z,27.40
2019-02-21T09:55:45.581Z,26.73
2019-02-21T09:58:14.802Z,26.53
2019-02-21T10:00:44.252Z,26.40
2019-02-21T10:03:13.590Z,28.20
2019-02-21T10:05:42.910Z,26.50
2019-02-21T10:08:12.276Z,27.10
2019-02-21T10:10:41.453Z,26.83
2019-02-21T10:13:13.146Z,25.90
2019-02-21T10:15:41.894Z,25.10
2019-02-21T10:18:11.179Z,25.07
2019-02-21T10:20:40.430Z,23.90
2019-02-21T10:23:09.720Z,25.90
2019-02-21T10:25:38.953Z,25.67
2019-02-21T10:28:08.198Z,24.10
2019-02-21T10:30:37.495Z,23.90
2019-02-21T10:33:06.704Z,24.30
2019-02-21T10:35:36.083Z,24.90
2019-02-21T10:38:05.753Z,24.37
2019-02-21T10:40:35.028Z,24.40
2019-02-21T10:43:04.342Z,23.10
2019-02-21T10:45:33.605Z,23.37
2019-02-21T10:48:02.809Z,23.10
2019-02-21T10:50:32.038Z,22.23
2019-02-21T10:53:01.231Z,20.70
2019-02-21T10:55:30.499Z,20.03
2019-02-21T10:57:59.744Z,20.73
2019-02-21T11:00:29.567Z,20.77
2019-02-21T11:02:58.866Z,21.17
2019-02-21T11:05:28.180Z,21.37
2019-02-21T11:07:57.410Z,21.43
2019-02-21T11:10:28.188Z,20.07
2019-02-21T11:12:57.524Z,20.87
2019-02-21T11:15:26.848Z,21.80
2019-02-21T11:17:56.062Z,21.10
2019-02-21T11:20:25.584Z,22.97
2019-02-21T11:22:54.810Z,21.40
2019-02-21T11:25:24.060Z,20.97
2019-02-21T11:27:53.371Z,21.03
2019-02-21T11:30:22.843Z,19.63
2019-02-21T11:32:52.148Z,20.63
2019-02-21T11:35:21.521Z,20.93
2019-02-21T11:37:50.795Z,23.10
2019-02-21T11:40:20.015Z,21.80
2019-02-21T11:42:49.408Z,21.53
2019-02-21T11:45:18.997Z,22.80
2019-02-21T11:47:48.394Z,24.07
2019-02-21T11:50:17.873Z,23.03
2019-02-21T11:52:47.144Z,24.73
2019-02-21T11:55:20.872Z,22.77
2019-02-21T11:57:50.057Z,24.67
2019-02-21T12:00:21.698Z,24.40
2019-02-21T12:02:51.026Z,26.33
2019-02-21T12:05:30.503Z,25.67
2019-02-21T12:07:51.181Z,25.77
2019-02-21T12:10:20.639Z,26.23
2019-02-21T12:12:49.840Z,24.60
2019-02-21T12:15:38.167Z,24.50
2019-02-21T12:18:07.409Z,24.33
2019-02-21T12:20:36.667Z,26.73
2019-02-21T12:23:06.345Z,26.23
2019-02-21T12:25:35.581Z,25.07
2019-02-21T12:28:04.795Z,23.90
2019-02-21T12:30:34.057Z,24.80
2019-02-21T12:33:03.335Z,25.57
2019-02-21T12:35:32.558Z,25.10
2019-02-21T12:38:01.930Z,24.83
2019-02-21T12:40:31.310Z,24.07
2019-02-21T12:43:00.532Z,26.10
2019-02-21T12:45:30.201Z,26.40
2019-02-21T12:47:59.926Z,25.17
2019-02-21T12:50:29.230Z,26.70
2019-02-21T12:52:58.438Z,26.20
2019-02-21T12:55:31.622Z,26.07
2019-02-21T12:57:58.705Z,25.80
2019-02-21T13:00:27.913Z,25.50
2019-02-21T13:02:58.424Z,24.90
2019-02-21T13:05:27.667Z,25.53
2019-02-21T13:07:57.118Z,24.07
2019-02-21T13:10:26.456Z,24.97
2019-02-21T13:12:55.799Z,23.97
2019-02-21T13:15:25.092Z,24.13
2019-02-21T13:17:54.342Z,24.13
2019-02-21T13:20:23.769Z,22.93
2019-02-21T13:22:52.971Z,23.17
2019-02-21T13:25:22.237Z,21.87
2019-02-21T13:27:51.449Z,23.23
2019-02-21T13:30:20.808Z,22.73
2019-02-21T13:32:50.115Z,21.60
2019-02-21T13:35:19.529Z,20.77
2019-02-21T13:37:48.784Z,20.43
2019-02-21T13:40:21.042Z,19.97
2019-02-21T13:42:49.031Z,20.57
2019-02-21T13:45:18.404Z,18.80
2019-02-21T13:47:47.595Z,19.73
2019-02-21T13:50:17.227Z,20.93
2019-02-21T13:52:46.541Z,19.20
2019-02-21T13:55:15.884Z,18.83
2019-02-21T13:57:45.104Z,19.57
2019-02-21T14:00:18.331Z,18.93
2019-02-21T14:02:47.606Z,19.37
2019-02-21T14:05:16.831Z,19.73
2019-02-21T14:07:46.250Z,19.07
2019-02-21T14:10:15.767Z,19.47
2019-02-21T14:12:44.998Z,19.10
2019-02-21T14:15:16.344Z,18.13
2019-02-21T14:17:46.634Z,19.30
2019-02-21T14:20:16.278Z,20.10
2019-02-21T14:22:45.603Z,18.40
2019-02-21T14:25:14.878Z,17.10
2019-02-21T14:27:44.143Z,14.77
2019-02-21T14:30:15.620Z,13.60
2019-02-21T14:32:44.899Z,13.70
2019-02-21T14:35:15.314Z,12.90
2019-02-21T14:37:44.685Z,10.27
2019-02-21T14:40:33.114Z,10.57
2019-02-21T14:43:02.426Z,9.57
2019-02-21T14:45:31.705Z,9.87
2019-02-21T14:48:01.193Z,9.17
2019-02-21T14:50:30.413Z,8.40
2019-02-21T14:52:59.689Z,8.17
2019-02-21T14:55:30.203Z,9.40
2019-02-21T14:57:59.559Z,9.53
2019-02-21T15:00:28.762Z,8.40
2019-02-21T15:02:58.214Z,9.27
2019-02-21T15:05:27.457Z,8.77
2019-02-21T15:07:56.801Z,7.63
2019-02-21T15:10:26.039Z,8.63
2019-02-21T15:12:55.357Z,8.33
2019-02-21T15:15:24.704Z,8.83
2019-02-21T15:17:54.154Z,8.73
2019-02-21T15:20:23.514Z,8.93
2019-02-21T15:22:54.011Z,9.27
2019-02-21T15:25:23.457Z,9.70
2019-02-21T15:27:52.784Z,9.77
2019-02-21T15:30:22.190Z,9.30
2019-02-21T15:32:51.446Z,9.53
2019-02-21T15:35:20.834Z,10.07
2019-02-21T15:37:50.532Z,9.43
2019-02-21T15:40:19.876Z,9.97
2019-02-21T15:42:49.204Z,9.80
2019-02-21T15:45:23.439Z,8.80
2019-02-21T15:47:51.194Z,10.10
2019-02-21T15:50:20.728Z,9.53
2019-02-21T15:52:50.187Z,9.47
2019-02-21T15:55:20.536Z,10.30
2019-02-21T15:57:49.753Z,9.63
2019-02-21T16:00:19.122Z,10.60
2019-02-21T16:02:48.435Z,10.90
2019-02-21T16:05:17.664Z,9.63
2019-02-21T16:07:46.886Z,9.93
2019-02-21T16:10:18.620Z,9.60
2019-02-21T16:12:48.704Z,9.03
2019-02-21T16:15:18.421Z,9.60
2019-02-21T16:17:47.790Z,9.17
2019-02-21T16:20:17.193Z,9.03
2019-02-21T16:22:46.891Z,8.87
2019-02-21T16:25:18.114Z,9.43
2019-02-21T16:27:47.414Z,9.23
2019-02-21T16:30:35.878Z,10.37
2019-02-21T16:33:05.488Z,10.30
2019-02-21T16:35:34.937Z,9.73
2019-02-21T16:38:04.220Z,11.87
2019-02-21T16:40:33.724Z,11.07
2019-02-21T16:43:03.085Z,11.80
2019-02-21T16:45:43.070Z,12.47
2019-02-21T16:48:03.402Z,12.00
2019-02-21T16:50:33.114Z,12.00
2019-02-21T16:53:02.473Z,12.80
2019-02-21T16:55:31.879Z,14.20
2019-02-21T16:58:01.349Z,15.63
2019-02-21T17:00:47.414Z,14.87
2019-02-21T17:03:04.937Z,15.83
2019-02-21T17:05:34.138Z,17.47
2019-02-21T17:08:03.462Z,16.37
2019-02-21T17:10:32.670Z,18.83
2019-02-21T17:13:02.032Z,18.63
2019-02-21T17:15:31.428Z,20.63
2019-02-21T17:18:03.874Z,20.57
2019-02-21T17:20:31.560Z,21.37
2019-02-21T17:23:00.842Z,21.07
2019-02-21T17:25:49.125Z,21.97
2019-02-21T17:28:18.636Z,21.77
2019-02-21T17:30:47.847Z,22.53
2019-02-21T17:33:17.044Z,22.17
2019-02-21T17:35:46.302Z,24.47
2019-02-21T17:38:15.619Z,24.30
2019-02-21T17:40:44.891Z,25.30
2019-02-21T17:43:14.170Z,27.23
2019-02-21T17:45:43.379Z,28.93
2019-02-21T17:48:12.815Z,27.57
2019-02-21T17:50:43.296Z,28.70
2019-02-21T17:53:12.591Z,28.30
2019-02-21T17:55:42.224Z,29.90
2019-02-21T17:58:11.686Z,33.57
2019-02-21T18:00:41.051Z,31.73
2019-02-21T18:03:10.697Z,32.60
2019-02-21T18:05:40.151Z,33.80
2019-02-21T18:08:09.394Z,32.97
2019-02-21T18:10:38.807Z,32.50
2019-02-21T18:13:08.201Z,34.73
2019-02-21T18:15:37.888Z,34.23
2019-02-21T18:18:07.179Z,35.10
2019-02-21T18:20:36.408Z,35.07
2019-02-21T18:23:05.733Z,35.20
2019-02-21T18:25:38.565Z,37.43
2019-02-21T18:28:07.929Z,35.57
2019-02-21T18:30:37.611Z,36.33
2019-02-21T18:33:07.090Z,39.10
2019-02-21T18:35:36.502Z,38.47
2019-02-21T18:38:05.822Z,36.70
2019-02-21T18:40:35.225Z,39.23
2019-02-21T18:43:04.786Z,39.63
2019-02-21T18:45:34.380Z,37.30
2019-02-21T18:48:03.621Z,37.10
2019-02-21T18:50:38.226Z,39.33
2019-02-21T18:53:04.362Z,38.40
2019-02-21T18:55:34.208Z,40.07
2019-02-21T18:58:03.507Z,41.23
2019-02-21T19:00:51.964Z,39.77
2019-02-21T19:03:21.276Z,38.20
2019-02-21T19:05:50.580Z,40.83
2019-02-21T19:08:19.898Z,40.53
2019-02-21T19:10:49.148Z,37.10
2019-02-21T19:13:18.557Z,39.90
2019-02-21T19:15:48.119Z,40.87
2019-02-21T19:18:17.425Z,40.90
2019-02-21T19:20:46.816Z,38.00
2019-02-21T19:23:16.382Z,40.33
2019-02-21T19:25:45.587Z,40.90
2019-02-21T19:28:14.924Z,43.00
2019-02-21T19:30:48.494Z,40.70
2019-02-21T19:33:17.991Z,39.30
2019-02-21T19:35:48.592Z,41.07
2019-02-21T19:38:18.119Z,40.50
2019-02-21T19:40:47.431Z,40.37
2019-02-21T19:43:16.637Z,39.87
2019-02-21T19:45:45.951Z,40.10
2019-02-21T19:48:15.238Z,42.27
2019-02-21T19:50:44.498Z,41.13
2019-02-21T19:53:14.461Z,41.57
2019-02-21T19:55:44.158Z,42.13
2019-02-21T19:58:13.438Z,41.23
2019-02-21T20:00:42.658Z,40.57
2019-02-21T20:03:11.986Z,42.97
2019-02-21T20:05:41.420Z,42.07
2019-02-21T20:08:21.061Z,38.97
2019-02-21T20:10:41.808Z,42.37
2019-02-21T20:13:11.435Z,41.27
2019-02-21T20:15:40.950Z,42.00
2019-02-21T20:18:10.226Z,43.60
2019-02-21T20:20:39.418Z,42.03
2019-02-21T20:23:08.718Z,44.87
2019-02-21T20:25:37.992Z,41.00
2019-02-21T20:28:07.298Z,44.17
2019-02-21T20:30:36.628Z,42.37
2019-02-21T20:33:05.896Z,41.67
2019-02-21T20:35:35.111Z,44.13
2019-02-21T20:38:04.504Z,44.30
2019-02-21T20:40:33.809Z,44.77
2019-02-21T20:43:03.030Z,44.43
2019-02-21T20:45:32.313Z,46.10
2019-02-21T20:48:01.512Z,43.47
2019-02-21T20:50:30.877Z,44.20
2019-02-21T20:53:02.765Z,45.43
2019-02-21T20:55:31.805Z,43.57
2019-02-21T20:58:01.025Z,43.90
2019-02-21T21:00:30.938Z,42.80
2019-02-21T21:03:00.343Z,43.83
2019-02-21T21:05:29.725Z,43.27
2019-02-21T21:07:59.211Z,46.40
2019-02-21T21:10:28.472Z,43.80
2019-02-21T21:12:57.669Z,41.53
2019-02-21T21:15:31.298Z,43.60
2019-02-21T21:18:00.750Z,42.63
2019-02-21T21:20:30.031Z,43.23
2019-02-21T21:23:00.300Z,42.97
2019-02-21T21:25:31.879Z,43.23
2019-02-21T21:28:00.886Z,43.77
2019-02-21T21:30:30.243Z,44.33
2019-02-21T21:32:59.452Z,42.87
2019-02-21T21:35:32.117Z,45.57
2019-02-21T21:38:01.386Z,43.47
2019-02-21T21:40:30.682Z,46.80
2019-02-21T21:42:59.948Z,44.20
2019-02-21T21:45:29.359Z,45.70
2019-02-21T21:47:58.676Z,48.07
2019-02-21T21:50:28.213Z,47.73
2019-02-21T21:52:57.627Z,46.80
2019-02-21T21:55:26.895Z,47.60
2019-02-21T21:57:56.224Z,46.13
2019-02-21T22:00:25.640Z,47.30
2019-02-21T22:02:54.870Z,46.03
2019-02-21T22:05:24.142Z,45.50
2019-02-21T22:07:53.463Z,48.70
2019-02-21T22:10:22.663Z,48.33
2019-02-21T22:12:51.872Z,43.33
2019-02-21T22:15:21.533Z,45.63
2019-02-21T22:18:09.887Z,45.37
2019-02-21T22:20:39.218Z,46.07
2019-02-21T22:23:08.573Z,48.37
2019-02-21T22:25:37.828Z,47.33
2019-02-21T22:28:07.059Z,46.87
2019-02-21T22:30:37.211Z,48.47
2019-02-21T22:33:06.609Z,44.93
2019-02-21T22:35:35.891Z,45.63
2019-02-21T22:38:05.171Z,44.97
2019-02-21T22:40:34.392Z,43.77
2019-02-21T22:43:03.712Z,44.87
2019-02-21T22:45:32.911Z,43.03
2019-02-21T22:48:02.116Z,45.60
2019-02-21T22:50:31.644Z,47.13
2019-02-21T22:53:00.863Z,45.47
2019-02-21T22:55:30.242Z,48.00
2019-02-21T22:57:59.640Z,45.33
2019-02-21T23:00:59.497Z,47.33
2019-02-21T23:03:33.180Z,45.87
2019-02-21T23:06:52.499Z,47.53
2019-02-21T23:09:27.415Z,45.83
2019-02-21T23:11:55.135Z,46.87
2019-02-21T23:14:24.320Z,46.93
2019-02-21T23:16:53.647Z,45.50
2019-02-21T23:19:24.215Z,45.87
2019-02-21T23:21:53.640Z,47.67
2019-02-21T23:24:22.929Z,44.80
2019-02-21T23:26:52.150Z,44.57
2019-02-21T23:29:21.502Z,44.97
2019-02-21T23:31:50.830Z,41.93
2019-02-21T23:34:27.845Z,44.47
2019-02-21T23:36:57.313Z,42.97
2019-02-21T23:39:37.588Z,43.00
2019-02-21T23:41:57.596Z,43.93
2019-02-21T23:44:26.842Z,41.53
2019-02-21T23:46:56.143Z,43.67
2019-02-21T23:49:25.509Z,43.60
2019-02-21T23:51:54.869Z,43.03
2019-02-21T23:54:24.063Z,42.97
2019-02-21T23:56:53.255Z,43.30
2019-02-21T23:59:22.545Z,42.77
